sensor_id;sensor_type;location;lat;lon;timestamp;P1;durP1;ratioP1;P2;durP2;ratioP2
24147;SDS011;12309;51.450;-2.624;2023-04-25T00:02:02;19.17;;;5.00;;
24147;SDS011;12309;51.450;-2.624;2023-04-25T00:04:28;16.43;;;4.37;;
24147;SDS011;12309;51.450;-2.624;2023-04-25T00:06:54;18.67;;;5.10;;
24147;SDS011;12309;51.450;-2.624;2023-04-25T00:09:21;15.03;;;4.33;;
24147;SDS011;12309;51.450;-2.624;2023-04-25T00:11:47;15.20;;;4.23;;
24147;SDS011;12309;51.450;-2.624;2023-04-25T00:14:13;14.80;;;4.43;;
24147;SDS011;12309;51.450;-2.624;2023-04-25T00:16:39;19.80;;;4.83;;
24147;SDS011;12309;51.450;-2.624;2023-04-25T00:19:06;20.33;;;4.67;;
24147;SDS011;12309;51.450;-2.624;2023-04-25T00:21:32;18.43;;;5.23;;
24147;SDS011;12309;51.450;-2.624;2023-04-25T00:23:58;14.07;;;4.63;;
24147;SDS011;12309;51.450;-2.624;2023-04-25T00:26:25;17.67;;;4.93;;
24147;SDS011;12309;51.450;-2.624;2023-04-25T00:28:50;12.93;;;3.97;;
24147;SDS011;12309;51.450;-2.624;2023-04-25T00:31:16;16.13;;;4.50;;
24147;SDS011;12309;51.450;-2.624;2023-04-25T00:33:42;11.60;;;4.23;;
24147;SDS011;12309;51.450;-2.624;2023-04-25T00:36:08;22.87;;;4.63;;
24147;SDS011;12309;51.450;-2.624;2023-04-25T00:38:34;13.27;;;4.23;;
24147;SDS011;12309;51.450;-2.624;2023-04-25T00:41:00;13.87;;;4.43;;
24147;SDS011;12309;51.450;-2.624;2023-04-25T00:43:28;14.57;;;4.73;;
24147;SDS011;12309;51.450;-2.624;2023-04-25T00:45:56;16.73;;;4.40;;
24147;SDS011;12309;51.450;-2.624;2023-04-25T00:48:23;23.23;;;5.50;;
24147;SDS011;12309;51.450;-2.624;2023-04-25T00:50:58;17.00;;;4.87;;
24147;SDS011;12309;51.450;-2.624;2023-04-25T00:53:25;14.80;;;5.57;;
24147;SDS011;12309;51.450;-2.624;2023-04-25T00:55:52;16.33;;;5.77;;
24147;SDS011;12309;51.450;-2.624;2023-04-25T00:58:18;17.90;;;5.37;;
24147;SDS011;12309;51.450;-2.624;2023-04-25T01:00:45;16.27;;;5.33;;
24147;SDS011;12309;51.450;-2.624;2023-04-25T01:03:16;18.03;;;5.37;;
24147;SDS011;12309;51.450;-2.624;2023-04-25T01:05:45;13.50;;;5.00;;
24147;SDS011;12309;51.450;-2.624;2023-04-25T01:08:11;15.87;;;6.10;;
24147;SDS011;12309;51.450;-2.624;2023-04-25T01:10:37;13.87;;;5.27;;
24147;SDS011;12309;51.450;-2.624;2023-04-25T01:13:03;16.07;;;5.97;;
24147;SDS011;12309;51.450;-2.624;2023-04-25T01:15:30;19.60;;;6.30;;
24147;SDS011;12309;51.450;-2.624;2023-04-25T01:17:56;12.27;;;6.20;;
24147;SDS011;12309;51.450;-2.624;2023-04-25T01:20:23;15.93;;;6.37;;
24147;SDS011;12309;51.450;-2.624;2023-04-25T01:22:52;13.97;;;6.50;;
24147;SDS011;12309;51.450;-2.624;2023-04-25T01:25:20;16.77;;;6.70;;
24147;SDS011;12309;51.450;-2.624;2023-04-25T01:27:46;18.97;;;6.67;;
24147;SDS011;12309;51.450;-2.624;2023-04-25T01:30:12;26.17;;;6.77;;
24147;SDS011;12309;51.450;-2.624;2023-04-25T01:32:38;20.87;;;6.57;;
24147;SDS011;12309;51.450;-2.624;2023-04-25T01:35:06;21.13;;;6.30;;
24147;SDS011;12309;51.450;-2.624;2023-04-25T01:37:38;21.07;;;6.60;;
24147;SDS011;12309;51.450;-2.624;2023-04-25T01:40:05;17.40;;;6.23;;
24147;SDS011;12309;51.450;-2.624;2023-04-25T01:42:32;14.20;;;6.37;;
24147;SDS011;12309;51.450;-2.624;2023-04-25T01:44:58;20.60;;;7.07;;
24147;SDS011;12309;51.450;-2.624;2023-04-25T01:47:24;24.70;;;6.37;;
24147;SDS011;12309;51.450;-2.624;2023-04-25T01:49:49;17.70;;;7.07;;
24147;SDS011;12309;51.450;-2.624;2023-04-25T01:52:15;15.33;;;6.37;;
24147;SDS011;12309;51.450;-2.624;2023-04-25T01:54:41;14.80;;;6.30;;
24147;SDS011;12309;51.450;-2.624;2023-04-25T01:57:09;17.13;;;7.03;;
24147;SDS011;12309;51.450;-2.624;2023-04-25T01:59:38;20.00;;;6.60;;
24147;SDS011;12309;51.450;-2.624;2023-04-25T02:02:04;17.80;;;6.50;;
24147;SDS011;12309;51.450;-2.624;2023-04-25T02:04:30;17.00;;;6.80;;
24147;SDS011;12309;51.450;-2.624;2023-04-25T02:06:56;18.30;;;6.73;;
24147;SDS011;12309;51.450;-2.624;2023-04-25T02:09:22;14.90;;;6.30;;
24147;SDS011;12309;51.450;-2.624;2023-04-25T02:11:48;20.97;;;6.67;;
24147;SDS011;12309;51.450;-2.624;2023-04-25T02:14:14;14.70;;;6.33;;
24147;SDS011;12309;51.450;-2.624;2023-04-25T02:16:39;21.77;;;6.90;;
24147;SDS011;12309;51.450;-2.624;2023-04-25T02:19:05;16.27;;;6.30;;
24147;SDS011;12309;51.450;-2.624;2023-04-25T02:21:31;14.47;;;6.30;;
24147;SDS011;12309;51.450;-2.624;2023-04-25T02:23:57;18.27;;;6.50;;
24147;SDS011;12309;51.450;-2.624;2023-04-25T02:26:23;18.63;;;6.47;;
24147;SDS011;12309;51.450;-2.624;2023-04-25T02:28:49;19.43;;;6.83;;
24147;SDS011;12309;51.450;-2.624;2023-04-25T02:31:15;18.53;;;6.60;;
24147;SDS011;12309;51.450;-2.624;2023-04-25T02:33:41;15.30;;;6.47;;
24147;SDS011;12309;51.450;-2.624;2023-04-25T02:36:07;18.07;;;6.70;;
24147;SDS011;12309;51.450;-2.624;2023-04-25T02:38:33;15.43;;;6.77;;
24147;SDS011;12309;51.450;-2.624;2023-04-25T02:40:58;18.60;;;6.07;;
24147;SDS011;12309;51.450;-2.624;2023-04-25T02:43:24;19.33;;;6.63;;
24147;SDS011;12309;51.450;-2.624;2023-04-25T02:45:49;17.83;;;6.80;;
24147;SDS011;12309;51.450;-2.624;2023-04-25T02:48:15;16.57;;;7.00;;
24147;SDS011;12309;51.450;-2.624;2023-04-25T02:50:41;17.73;;;6.80;;
24147;SDS011;12309;51.450;-2.624;2023-04-25T02:53:07;20.27;;;7.47;;
24147;SDS011;12309;51.450;-2.624;2023-04-25T02:55:32;19.80;;;6.20;;
24147;SDS011;12309;51.450;-2.624;2023-04-25T02:57:58;16.43;;;6.27;;
24147;SDS011;12309;51.450;-2.624;2023-04-25T03:00:24;20.23;;;6.57;;
24147;SDS011;12309;51.450;-2.624;2023-04-25T03:02:50;17.67;;;6.13;;
24147;SDS011;12309;51.450;-2.624;2023-04-25T03:05:16;17.27;;;5.87;;
24147;SDS011;12309;51.450;-2.624;2023-04-25T03:07:42;20.10;;;5.53;;
24147;SDS011;12309;51.450;-2.624;2023-04-25T03:10:08;19.43;;;5.63;;
24147;SDS011;12309;51.450;-2.624;2023-04-25T03:12:35;16.83;;;5.17;;
24147;SDS011;12309;51.450;-2.624;2023-04-25T03:15:01;17.97;;;5.40;;
24147;SDS011;12309;51.450;-2.624;2023-04-25T03:17:27;19.83;;;5.10;;
24147;SDS011;12309;51.450;-2.624;2023-04-25T03:19:53;17.70;;;5.10;;
24147;SDS011;12309;51.450;-2.624;2023-04-25T03:22:18;16.23;;;4.73;;
24147;SDS011;12309;51.450;-2.624;2023-04-25T03:24:44;16.53;;;5.13;;
24147;SDS011;12309;51.450;-2.624;2023-04-25T03:27:10;19.00;;;4.83;;
24147;SDS011;12309;51.450;-2.624;2023-04-25T03:29:35;17.53;;;3.93;;
24147;SDS011;12309;51.450;-2.624;2023-04-25T03:32:01;10.70;;;3.70;;
24147;SDS011;12309;51.450;-2.624;2023-04-25T03:34:27;15.03;;;4.43;;
24147;SDS011;12309;51.450;-2.624;2023-04-25T03:36:52;13.40;;;3.87;;
24147;SDS011;12309;51.450;-2.624;2023-04-25T03:39:18;14.47;;;3.73;;
24147;SDS011;12309;51.450;-2.624;2023-04-25T03:41:44;17.50;;;4.47;;
24147;SDS011;12309;51.450;-2.624;2023-04-25T03:44:09;15.47;;;4.63;;
24147;SDS011;12309;51.450;-2.624;2023-04-25T03:46:35;16.70;;;4.33;;
24147;SDS011;12309;51.450;-2.624;2023-04-25T03:49:00;13.30;;;4.57;;
24147;SDS011;12309;51.450;-2.624;2023-04-25T03:51:26;14.00;;;4.33;;
24147;SDS011;12309;51.450;-2.624;2023-04-25T03:53:52;16.00;;;4.03;;
24147;SDS011;12309;51.450;-2.624;2023-04-25T03:56:18;20.47;;;4.50;;
24147;SDS011;12309;51.450;-2.624;2023-04-25T03:58:45;16.37;;;4.03;;
24147;SDS011;12309;51.450;-2.624;2023-04-25T04:01:10;15.80;;;4.10;;
24147;SDS011;12309;51.450;-2.624;2023-04-25T04:03:36;14.70;;;3.67;;
24147;SDS011;12309;51.450;-2.624;2023-04-25T04:06:02;17.60;;;3.80;;
24147;SDS011;12309;51.450;-2.624;2023-04-25T04:08:29;10.17;;;3.87;;
24147;SDS011;12309;51.450;-2.624;2023-04-25T04:10:55;11.93;;;3.87;;
24147;SDS011;12309;51.450;-2.624;2023-04-25T04:13:22;18.50;;;4.20;;
24147;SDS011;12309;51.450;-2.624;2023-04-25T04:15:47;12.63;;;3.90;;
24147;SDS011;12309;51.450;-2.624;2023-04-25T04:18:13;13.97;;;3.97;;
24147;SDS011;12309;51.450;-2.624;2023-04-25T04:20:38;19.80;;;4.20;;
24147;SDS011;12309;51.450;-2.624;2023-04-25T04:23:04;11.17;;;3.80;;
24147;SDS011;12309;51.450;-2.624;2023-04-25T04:25:30;14.97;;;4.30;;
24147;SDS011;12309;51.450;-2.624;2023-04-25T04:27:56;12.73;;;3.70;;
24147;SDS011;12309;51.450;-2.624;2023-04-25T04:30:22;19.70;;;3.73;;
24147;SDS011;12309;51.450;-2.624;2023-04-25T04:32:54;11.37;;;3.70;;
24147;SDS011;12309;51.450;-2.624;2023-04-25T04:35:21;14.07;;;3.67;;
24147;SDS011;12309;51.450;-2.624;2023-04-25T04:37:47;9.97;;;3.17;;
24147;SDS011;12309;51.450;-2.624;2023-04-25T04:40:13;17.47;;;3.87;;
24147;SDS011;12309;51.450;-2.624;2023-04-25T04:42:42;25.53;;;4.43;;
24147;SDS011;12309;51.450;-2.624;2023-04-25T04:45:10;16.60;;;4.73;;
24147;SDS011;12309;51.450;-2.624;2023-04-25T04:47:36;14.90;;;3.70;;
24147;SDS011;12309;51.450;-2.624;2023-04-25T04:50:08;12.30;;;3.53;;
24147;SDS011;12309;51.450;-2.624;2023-04-25T04:52:35;11.87;;;3.70;;
24147;SDS011;12309;51.450;-2.624;2023-04-25T04:55:01;16.20;;;3.50;;
24147;SDS011;12309;51.450;-2.624;2023-04-25T04:57:28;13.10;;;3.47;;
24147;SDS011;12309;51.450;-2.624;2023-04-25T04:59:54;16.73;;;4.00;;
24147;SDS011;12309;51.450;-2.624;2023-04-25T05:02:20;18.20;;;4.10;;
24147;SDS011;12309;51.450;-2.624;2023-04-25T05:04:46;12.10;;;4.17;;
24147;SDS011;12309;51.450;-2.624;2023-04-25T05:07:12;11.13;;;3.40;;
24147;SDS011;12309;51.450;-2.624;2023-04-25T05:09:37;15.40;;;4.73;;
24147;SDS011;12309;51.450;-2.624;2023-04-25T05:12:03;13.57;;;4.27;;
24147;SDS011;12309;51.450;-2.624;2023-04-25T05:14:29;12.33;;;4.23;;
24147;SDS011;12309;51.450;-2.624;2023-04-25T05:16:55;11.20;;;3.87;;
24147;SDS011;12309;51.450;-2.624;2023-04-25T05:19:20;14.93;;;3.70;;
24147;SDS011;12309;51.450;-2.624;2023-04-25T05:21:46;11.87;;;3.87;;
24147;SDS011;12309;51.450;-2.624;2023-04-25T05:24:12;17.33;;;4.07;;
24147;SDS011;12309;51.450;-2.624;2023-04-25T05:26:38;17.50;;;3.93;;
24147;SDS011;12309;51.450;-2.624;2023-04-25T05:29:03;19.37;;;4.27;;
24147;SDS011;12309;51.450;-2.624;2023-04-25T05:31:30;20.77;;;4.77;;
24147;SDS011;12309;51.450;-2.624;2023-04-25T05:33:56;13.07;;;4.00;;
24147;SDS011;12309;51.450;-2.624;2023-04-25T05:36:22;17.70;;;4.17;;
24147;SDS011;12309;51.450;-2.624;2023-04-25T05:38:48;15.63;;;4.10;;
24147;SDS011;12309;51.450;-2.624;2023-04-25T05:41:13;13.80;;;3.87;;
24147;SDS011;12309;51.450;-2.624;2023-04-25T05:43:39;15.17;;;4.30;;
24147;SDS011;12309;51.450;-2.624;2023-04-25T05:46:10;15.77;;;4.63;;
24147;SDS011;12309;51.450;-2.624;2023-04-25T05:48:36;14.37;;;4.20;;
24147;SDS011;12309;51.450;-2.624;2023-04-25T05:51:02;14.03;;;4.23;;
24147;SDS011;12309;51.450;-2.624;2023-04-25T05:53:28;13.00;;;4.17;;
24147;SDS011;12309;51.450;-2.624;2023-04-25T05:55:53;14.47;;;4.20;;
24147;SDS011;12309;51.450;-2.624;2023-04-25T05:58:19;15.23;;;4.17;;
24147;SDS011;12309;51.450;-2.624;2023-04-25T06:00:45;14.90;;;4.10;;
24147;SDS011;12309;51.450;-2.624;2023-04-25T06:03:11;13.77;;;4.43;;
24147;SDS011;12309;51.450;-2.624;2023-04-25T06:05:40;12.03;;;4.33;;
24147;SDS011;12309;51.450;-2.624;2023-04-25T06:08:07;12.83;;;4.33;;
24147;SDS011;12309;51.450;-2.624;2023-04-25T06:10:32;23.17;;;4.30;;
24147;SDS011;12309;51.450;-2.624;2023-04-25T06:12:58;19.03;;;4.53;;
24147;SDS011;12309;51.450;-2.624;2023-04-25T06:15:23;13.77;;;4.73;;
24147;SDS011;12309;51.450;-2.624;2023-04-25T06:17:49;18.17;;;5.07;;
24147;SDS011;12309;51.450;-2.624;2023-04-25T06:20:15;16.00;;;4.70;;
24147;SDS011;12309;51.450;-2.624;2023-04-25T06:22:40;17.00;;;5.07;;
24147;SDS011;12309;51.450;-2.624;2023-04-25T06:25:06;22.13;;;5.17;;
24147;SDS011;12309;51.450;-2.624;2023-04-25T06:27:33;20.03;;;4.43;;
24147;SDS011;12309;51.450;-2.624;2023-04-25T06:29:58;20.57;;;5.60;;
24147;SDS011;12309;51.450;-2.624;2023-04-25T06:32:24;18.80;;;4.83;;
24147;SDS011;12309;51.450;-2.624;2023-04-25T06:34:52;20.30;;;5.20;;
24147;SDS011;12309;51.450;-2.624;2023-04-25T06:37:18;14.50;;;4.87;;
24147;SDS011;12309;51.450;-2.624;2023-04-25T06:39:43;13.67;;;5.03;;
24147;SDS011;12309;51.450;-2.624;2023-04-25T06:42:09;16.73;;;4.50;;
24147;SDS011;12309;51.450;-2.624;2023-04-25T06:44:35;25.70;;;4.47;;
24147;SDS011;12309;51.450;-2.624;2023-04-25T06:47:01;15.17;;;3.80;;
24147;SDS011;12309;51.450;-2.624;2023-04-25T06:49:26;20.27;;;4.13;;
24147;SDS011;12309;51.450;-2.624;2023-04-25T06:51:52;16.10;;;4.10;;
24147;SDS011;12309;51.450;-2.624;2023-04-25T06:54:17;12.10;;;4.23;;
24147;SDS011;12309;51.450;-2.624;2023-04-25T06:56:43;14.37;;;4.37;;
24147;SDS011;12309;51.450;-2.624;2023-04-25T06:59:09;26.87;;;4.30;;
24147;SDS011;12309;51.450;-2.624;2023-04-25T07:01:34;16.10;;;3.70;;
24147;SDS011;12309;51.450;-2.624;2023-04-25T07:04:00;18.23;;;4.73;;
24147;SDS011;12309;51.450;-2.624;2023-04-25T07:06:26;18.30;;;4.47;;
24147;SDS011;12309;51.450;-2.624;2023-04-25T07:08:52;15.73;;;4.07;;
24147;SDS011;12309;51.450;-2.624;2023-04-25T07:11:19;13.97;;;3.77;;
24147;SDS011;12309;51.450;-2.624;2023-04-25T07:13:45;16.33;;;3.90;;
24147;SDS011;12309;51.450;-2.624;2023-04-25T07:16:11;16.43;;;3.50;;
24147;SDS011;12309;51.450;-2.624;2023-04-25T07:18:36;11.30;;;3.53;;
24147;SDS011;12309;51.450;-2.624;2023-04-25T07:21:02;18.93;;;3.10;;
24147;SDS011;12309;51.450;-2.624;2023-04-25T07:23:28;12.20;;;3.13;;
24147;SDS011;12309;51.450;-2.624;2023-04-25T07:25:53;9.23;;;3.03;;
24147;SDS011;12309;51.450;-2.624;2023-04-25T07:28:19;18.07;;;3.97;;
24147;SDS011;12309;51.450;-2.624;2023-04-25T07:30:45;14.40;;;3.57;;
24147;SDS011;12309;51.450;-2.624;2023-04-25T07:33:10;14.77;;;2.80;;
24147;SDS011;12309;51.450;-2.624;2023-04-25T07:35:36;13.37;;;2.90;;
24147;SDS011;12309;51.450;-2.624;2023-04-25T07:38:02;13.00;;;3.17;;
24147;SDS011;12309;51.450;-2.624;2023-04-25T07:40:28;13.50;;;2.83;;
24147;SDS011;12309;51.450;-2.624;2023-04-25T07:42:55;16.67;;;3.70;;
24147;SDS011;12309;51.450;-2.624;2023-04-25T07:45:20;16.63;;;2.93;;
24147;SDS011;12309;51.450;-2.624;2023-04-25T07:47:46;8.57;;;2.93;;
24147;SDS011;12309;51.450;-2.624;2023-04-25T07:50:12;14.80;;;3.27;;
24147;SDS011;12309;51.450;-2.624;2023-04-25T07:52:37;14.27;;;3.30;;
24147;SDS011;12309;51.450;-2.624;2023-04-25T07:55:03;12.70;;;3.20;;
24147;SDS011;12309;51.450;-2.624;2023-04-25T07:57:29;11.40;;;2.43;;
24147;SDS011;12309;51.450;-2.624;2023-04-25T07:59:55;16.47;;;3.13;;
24147;SDS011;12309;51.450;-2.624;2023-04-25T08:02:20;10.67;;;2.37;;
24147;SDS011;12309;51.450;-2.624;2023-04-25T08:04:46;9.47;;;2.47;;
24147;SDS011;12309;51.450;-2.624;2023-04-25T08:07:11;10.53;;;2.63;;
24147;SDS011;12309;51.450;-2.624;2023-04-25T08:09:37;9.83;;;2.63;;
24147;SDS011;12309;51.450;-2.624;2023-04-25T08:12:03;11.13;;;2.67;;
24147;SDS011;12309;51.450;-2.624;2023-04-25T08:14:29;17.37;;;2.80;;
24147;SDS011;12309;51.450;-2.624;2023-04-25T08:17:00;17.97;;;3.20;;
24147;SDS011;12309;51.450;-2.624;2023-04-25T08:19:27;8.77;;;2.50;;
24147;SDS011;12309;51.450;-2.624;2023-04-25T08:21:53;12.10;;;3.17;;
24147;SDS011;12309;51.450;-2.624;2023-04-25T08:24:20;8.67;;;3.00;;
24147;SDS011;12309;51.450;-2.624;2023-04-25T08:26:46;11.70;;;2.57;;
24147;SDS011;12309;51.450;-2.624;2023-04-25T08:29:11;13.95;;;2.80;;
24147;SDS011;12309;51.450;-2.624;2023-04-25T08:31:37;8.52;;;2.03;;
24147;SDS011;12309;51.450;-2.624;2023-04-25T08:34:02;6.18;;;1.88;;
24147;SDS011;12309;51.450;-2.624;2023-04-25T08:36:28;8.07;;;2.00;;
24147;SDS011;12309;51.450;-2.624;2023-04-25T08:38:54;8.57;;;1.85;;
24147;SDS011;12309;51.450;-2.624;2023-04-25T08:41:20;8.77;;;2.03;;
24147;SDS011;12309;51.450;-2.624;2023-04-25T08:43:47;8.60;;;2.17;;
24147;SDS011;12309;51.450;-2.624;2023-04-25T08:46:13;7.07;;;2.03;;
24147;SDS011;12309;51.450;-2.624;2023-04-25T08:48:43;9.10;;;2.03;;
24147;SDS011;12309;51.450;-2.624;2023-04-25T08:51:10;6.78;;;1.75;;
24147;SDS011;12309;51.450;-2.624;2023-04-25T08:53:45;10.07;;;2.00;;
24147;SDS011;12309;51.450;-2.624;2023-04-25T08:56:15;6.38;;;2.00;;
24147;SDS011;12309;51.450;-2.624;2023-04-25T08:58:43;8.90;;;1.95;;
24147;SDS011;12309;51.450;-2.624;2023-04-25T09:01:11;5.97;;;1.70;;
24147;SDS011;12309;51.450;-2.624;2023-04-25T09:03:36;7.13;;;1.90;;
24147;SDS011;12309;51.450;-2.624;2023-04-25T09:06:03;5.72;;;1.30;;
24147;SDS011;12309;51.450;-2.624;2023-04-25T09:08:28;5.45;;;1.35;;
24147;SDS011;12309;51.450;-2.624;2023-04-25T09:10:55;6.60;;;1.58;;
24147;SDS011;12309;51.450;-2.624;2023-04-25T09:13:24;12.25;;;1.70;;
24147;SDS011;12309;51.450;-2.624;2023-04-25T09:15:52;5.10;;;1.27;;
24147;SDS011;12309;51.450;-2.624;2023-04-25T09:18:29;6.07;;;1.60;;
24147;SDS011;12309;51.450;-2.624;2023-04-25T09:21:04;5.43;;;1.60;;
24147;SDS011;12309;51.450;-2.624;2023-04-25T09:23:31;10.95;;;2.17;;
24147;SDS011;12309;51.450;-2.624;2023-04-25T09:26:09;5.78;;;1.83;;
24147;SDS011;12309;51.450;-2.624;2023-04-25T09:28:35;7.68;;;1.77;;
24147;SDS011;12309;51.450;-2.624;2023-04-25T09:31:02;11.60;;;1.50;;
24147;SDS011;12309;51.450;-2.624;2023-04-25T09:33:29;10.57;;;1.85;;
24147;SDS011;12309;51.450;-2.624;2023-04-25T09:36:03;8.27;;;1.50;;
24147;SDS011;12309;51.450;-2.624;2023-04-25T09:38:45;5.97;;;2.00;;
24147;SDS011;12309;51.450;-2.624;2023-04-25T09:41:11;5.75;;;1.50;;
24147;SDS011;12309;51.450;-2.624;2023-04-25T09:43:38;6.85;;;1.52;;
24147;SDS011;12309;51.450;-2.624;2023-04-25T09:46:10;6.03;;;1.45;;
24147;SDS011;12309;51.450;-2.624;2023-04-25T09:48:36;6.15;;;1.20;;
24147;SDS011;12309;51.450;-2.624;2023-04-25T09:51:14;7.05;;;1.83;;
24147;SDS011;12309;51.450;-2.624;2023-04-25T09:53:41;8.48;;;1.90;;
24147;SDS011;12309;51.450;-2.624;2023-04-25T09:56:08;6.82;;;1.92;;
24147;SDS011;12309;51.450;-2.624;2023-04-25T09:58:35;9.45;;;1.45;;
24147;SDS011;12309;51.450;-2.624;2023-04-25T10:01:07;7.82;;;1.65;;
24147;SDS011;12309;51.450;-2.624;2023-04-25T10:03:34;7.50;;;1.30;;
24147;SDS011;12309;51.450;-2.624;2023-04-25T10:06:07;8.93;;;1.52;;
24147;SDS011;12309;51.450;-2.624;2023-04-25T10:08:37;6.43;;;1.55;;
24147;SDS011;12309;51.450;-2.624;2023-04-25T10:11:07;7.43;;;1.33;;
24147;SDS011;12309;51.450;-2.624;2023-04-25T10:13:34;3.72;;;1.05;;
24147;SDS011;12309;51.450;-2.624;2023-04-25T10:16:03;6.13;;;1.17;;
24147;SDS011;12309;51.450;-2.624;2023-04-25T10:18:30;4.13;;;1.25;;
24147;SDS011;12309;51.450;-2.624;2023-04-25T10:20:57;5.45;;;1.30;;
24147;SDS011;12309;51.450;-2.624;2023-04-25T10:23:24;4.80;;;1.30;;
24147;SDS011;12309;51.450;-2.624;2023-04-25T10:25:51;4.38;;;1.25;;
24147;SDS011;12309;51.450;-2.624;2023-04-25T10:28:17;3.92;;;1.20;;
24147;SDS011;12309;51.450;-2.624;2023-04-25T10:30:59;2.97;;;1.23;;
24147;SDS011;12309;51.450;-2.624;2023-04-25T10:33:33;4.35;;;1.38;;
24147;SDS011;12309;51.450;-2.624;2023-04-25T10:36:08;4.97;;;1.13;;
24147;SDS011;12309;51.450;-2.624;2023-04-25T10:38:38;5.25;;;1.35;;
24147;SDS011;12309;51.450;-2.624;2023-04-25T10:41:05;3.20;;;1.08;;
24147;SDS011;12309;51.450;-2.624;2023-04-25T10:43:38;4.30;;;1.55;;
24147;SDS011;12309;51.450;-2.624;2023-04-25T10:48:51;8.25;;;1.45;;
24147;SDS011;12309;51.450;-2.624;2023-04-25T10:51:27;7.03;;;1.85;;
24147;SDS011;12309;51.450;-2.624;2023-04-25T10:54:00;4.25;;;1.33;;
24147;SDS011;12309;51.450;-2.624;2023-04-25T10:56:28;4.78;;;1.38;;
24147;SDS011;12309;51.450;-2.624;2023-04-25T11:01:35;5.50;;;1.25;;
24147;SDS011;12309;51.450;-2.624;2023-04-25T11:04:05;4.43;;;1.45;;
24147;SDS011;12309;51.450;-2.624;2023-04-25T11:09:46;4.57;;;1.48;;
24147;SDS011;12309;51.450;-2.624;2023-04-25T11:12:11;6.57;;;1.35;;
24147;SDS011;12309;51.450;-2.624;2023-04-25T11:14:38;5.63;;;1.60;;
24147;SDS011;12309;51.450;-2.624;2023-04-25T11:17:04;4.85;;;1.67;;
24147;SDS011;12309;51.450;-2.624;2023-04-25T11:19:30;5.03;;;1.38;;
24147;SDS011;12309;51.450;-2.624;2023-04-25T11:21:57;5.82;;;1.55;;
24147;SDS011;12309;51.450;-2.624;2023-04-25T11:24:30;6.25;;;1.52;;
24147;SDS011;12309;51.450;-2.624;2023-04-25T11:27:00;5.45;;;1.65;;
24147;SDS011;12309;51.450;-2.624;2023-04-25T11:29:31;3.85;;;1.08;;
24147;SDS011;12309;51.450;-2.624;2023-04-25T11:31:58;4.05;;;1.10;;
24147;SDS011;12309;51.450;-2.624;2023-04-25T11:34:25;3.97;;;1.08;;
24147;SDS011;12309;51.450;-2.624;2023-04-25T11:36:51;3.60;;;1.27;;
24147;SDS011;12309;51.450;-2.624;2023-04-25T11:39:18;2.53;;;1.00;;
24147;SDS011;12309;51.450;-2.624;2023-04-25T11:41:44;6.57;;;1.48;;
24147;SDS011;12309;51.450;-2.624;2023-04-25T11:44:11;4.18;;;1.30;;
24147;SDS011;12309;51.450;-2.624;2023-04-25T11:46:37;6.57;;;1.30;;
24147;SDS011;12309;51.450;-2.624;2023-04-25T11:49:02;4.30;;;1.20;;
24147;SDS011;12309;51.450;-2.624;2023-04-25T11:51:29;6.07;;;1.35;;
24147;SDS011;12309;51.450;-2.624;2023-04-25T11:53:56;8.57;;;1.55;;
24147;SDS011;12309;51.450;-2.624;2023-04-25T11:56:22;5.75;;;1.30;;
24147;SDS011;12309;51.450;-2.624;2023-04-25T11:59:00;3.25;;;1.23;;
24147;SDS011;12309;51.450;-2.624;2023-04-25T12:01:36;5.50;;;1.38;;
24147;SDS011;12309;51.450;-2.624;2023-04-25T12:04:13;3.13;;;1.20;;
24147;SDS011;12309;51.450;-2.624;2023-04-25T12:06:43;3.42;;;1.10;;
24147;SDS011;12309;51.450;-2.624;2023-04-25T12:09:13;7.90;;;1.33;;
24147;SDS011;12309;51.450;-2.624;2023-04-25T12:12:01;143.85;;;10.13;;
24147;SDS011;12309;51.450;-2.624;2023-04-25T12:14:31;313.15;;;21.73;;
24147;SDS011;12309;51.450;-2.624;2023-04-25T12:16:58;8.38;;;1.75;;
24147;SDS011;12309;51.450;-2.624;2023-04-25T12:19:25;9.65;;;1.30;;
24147;SDS011;12309;51.450;-2.624;2023-04-25T12:21:56;3.38;;;1.20;;
24147;SDS011;12309;51.450;-2.624;2023-04-25T12:24:23;2.78;;;1.30;;
24147;SDS011;12309;51.450;-2.624;2023-04-25T12:27:03;4.90;;;1.10;;
24147;SDS011;12309;51.450;-2.624;2023-04-25T12:29:33;3.50;;;0.90;;
24147;SDS011;12309;51.450;-2.624;2023-04-25T12:31:59;1.77;;;0.80;;
24147;SDS011;12309;51.450;-2.624;2023-04-25T12:34:26;4.18;;;1.40;;
24147;SDS011;12309;51.450;-2.624;2023-04-25T12:36:52;3.30;;;1.10;;
24147;SDS011;12309;51.450;-2.624;2023-04-25T12:39:19;4.22;;;1.10;;
24147;SDS011;12309;51.450;-2.624;2023-04-25T12:41:46;4.30;;;1.27;;
24147;SDS011;12309;51.450;-2.624;2023-04-25T12:44:13;5.05;;;1.20;;
24147;SDS011;12309;51.450;-2.624;2023-04-25T12:46:39;4.03;;;1.63;;
24147;SDS011;12309;51.450;-2.624;2023-04-25T12:49:05;3.65;;;1.10;;
24147;SDS011;12309;51.450;-2.624;2023-04-25T12:51:32;7.07;;;1.60;;
24147;SDS011;12309;51.450;-2.624;2023-04-25T12:54:02;3.60;;;1.33;;
24147;SDS011;12309;51.450;-2.624;2023-04-25T12:56:29;6.72;;;1.40;;
24147;SDS011;12309;51.450;-2.624;2023-04-25T12:58:55;4.65;;;1.20;;
24147;SDS011;12309;51.450;-2.624;2023-04-25T13:01:21;3.78;;;1.10;;
24147;SDS011;12309;51.450;-2.624;2023-04-25T13:03:47;2.88;;;1.17;;
24147;SDS011;12309;51.450;-2.624;2023-04-25T13:06:13;2.65;;;1.17;;
24147;SDS011;12309;51.450;-2.624;2023-04-25T13:08:42;5.63;;;1.30;;
24147;SDS011;12309;51.450;-2.624;2023-04-25T13:11:08;8.18;;;1.40;;
24147;SDS011;12309;51.450;-2.624;2023-04-25T13:13:34;4.88;;;1.45;;
24147;SDS011;12309;51.450;-2.624;2023-04-25T13:16:01;8.65;;;1.50;;
24147;SDS011;12309;51.450;-2.624;2023-04-25T13:18:27;5.35;;;1.50;;
24147;SDS011;12309;51.450;-2.624;2023-04-25T13:20:53;4.85;;;1.48;;
24147;SDS011;12309;51.450;-2.624;2023-04-25T13:23:19;3.25;;;1.20;;
24147;SDS011;12309;51.450;-2.624;2023-04-25T13:25:46;6.18;;;1.45;;
24147;SDS011;12309;51.450;-2.624;2023-04-25T13:28:12;4.28;;;1.25;;
24147;SDS011;12309;51.450;-2.624;2023-04-25T13:30:38;3.45;;;1.20;;
24147;SDS011;12309;51.450;-2.624;2023-04-25T13:33:04;5.47;;;1.10;;
24147;SDS011;12309;51.450;-2.624;2023-04-25T13:35:31;3.78;;;1.23;;
24147;SDS011;12309;51.450;-2.624;2023-04-25T13:37:59;5.88;;;1.20;;
24147;SDS011;12309;51.450;-2.624;2023-04-25T13:40:25;3.13;;;1.25;;
24147;SDS011;12309;51.450;-2.624;2023-04-25T13:42:51;3.33;;;1.33;;
24147;SDS011;12309;51.450;-2.624;2023-04-25T13:45:17;5.35;;;1.27;;
24147;SDS011;12309;51.450;-2.624;2023-04-25T13:47:43;3.60;;;1.20;;
24147;SDS011;12309;51.450;-2.624;2023-04-25T13:50:09;3.90;;;1.30;;
24147;SDS011;12309;51.450;-2.624;2023-04-25T13:52:35;6.10;;;1.08;;
24147;SDS011;12309;51.450;-2.624;2023-04-25T13:55:01;5.65;;;1.27;;
24147;SDS011;12309;51.450;-2.624;2023-04-25T13:57:28;2.03;;;0.98;;
24147;SDS011;12309;51.450;-2.624;2023-04-25T13:59:57;3.78;;;1.13;;
24147;SDS011;12309;51.450;-2.624;2023-04-25T14:02:22;9.30;;;1.33;;
24147;SDS011;12309;51.450;-2.624;2023-04-25T14:04:48;3.70;;;1.10;;
24147;SDS011;12309;51.450;-2.624;2023-04-25T14:07:14;3.67;;;1.20;;
24147;SDS011;12309;51.450;-2.624;2023-04-25T14:09:41;6.78;;;1.33;;
24147;SDS011;12309;51.450;-2.624;2023-04-25T14:12:07;3.30;;;1.00;;
24147;SDS011;12309;51.450;-2.624;2023-04-25T14:14:32;5.68;;;1.80;;
24147;SDS011;12309;51.450;-2.624;2023-04-25T14:16:58;3.20;;;1.23;;
24147;SDS011;12309;51.450;-2.624;2023-04-25T14:19:23;6.20;;;1.48;;
24147;SDS011;12309;51.450;-2.624;2023-04-25T14:21:49;5.40;;;1.17;;
24147;SDS011;12309;51.450;-2.624;2023-04-25T14:24:15;3.45;;;1.10;;
24147;SDS011;12309;51.450;-2.624;2023-04-25T14:26:41;4.65;;;1.23;;
24147;SDS011;12309;51.450;-2.624;2023-04-25T14:29:07;4.13;;;1.08;;
24147;SDS011;12309;51.450;-2.624;2023-04-25T14:31:33;4.20;;;1.27;;
24147;SDS011;12309;51.450;-2.624;2023-04-25T14:34:00;5.13;;;1.25;;